createdAt,value
2022-10-20T00:01:19.012Z,58.64
2022-10-20T00:03:46.238Z,58.88
2022-10-20T00:06:20.218Z,58.41
2022-10-20T00:08:47.670Z,58.63
2022-10-20T00:11:16.189Z,58.60
2022-10-20T00:13:43.500Z,58.85
2022-10-20T00:16:10.185Z,58.77
2022-10-20T00:18:36.940Z,58.78
2022-10-20T00:21:07.408Z,58.87
2022-10-20T00:23:34.070Z,58.95
2022-10-20T00:26:04.495Z,59.26
2022-10-20T00:28:31.087Z,59.19
2022-10-20T00:30:57.860Z,59.29
2022-10-20T00:33:24.912Z,59.20
2022-10-20T00:35:51.910Z,59.49
2022-10-20T00:41:05.430Z,59.38
2022-10-20T00:43:52.215Z,59.88
2022-10-20T00:46:23.497Z,59.80
2022-10-20T00:48:55.313Z,59.70
2022-10-20T00:51:25.170Z,60.07
2022-10-20T00:53:53.594Z,59.72
2022-10-20T00:56:20.682Z,59.75
2022-10-20T00:58:47.641Z,60.10
2022-10-20T01:01:14.746Z,60.11
2022-10-20T01:03:46.936Z,59.72
2022-10-20T01:08:41.897Z,60.03
2022-10-20T01:11:14.577Z,60.23
2022-10-20T01:13:43.963Z,60.34
2022-10-20T01:16:22.063Z,60.23
2022-10-20T01:18:48.619Z,60.21
2022-10-20T01:21:33.764Z,59.94
2022-10-20T01:24:07.878Z,60.29
2022-10-20T01:27:13.039Z,60.36
2022-10-20T01:29:46.517Z,60.29
2022-10-20T01:32:31.901Z,60.13
2022-10-20T01:35:02.212Z,60.54
2022-10-20T01:37:49.093Z,60.34
2022-10-20T01:40:18.854Z,60.77
2022-10-20T01:42:47.302Z,60.36
2022-10-20T01:45:15.494Z,60.54
2022-10-20T01:47:43.162Z,60.20
2022-10-20T01:50:11.119Z,60.67
2022-10-20T01:52:38.126Z,60.72
2022-10-20T01:55:15.264Z,60.83
2022-10-20T01:57:47.986Z,60.83
2022-10-20T02:00:16.128Z,60.66
2022-10-20T02:03:06.505Z,60.66
2022-10-20T02:05:48.470Z,60.81
2022-10-20T02:08:26.732Z,61.17
2022-10-20T02:10:57.080Z,61.20
2022-10-20T02:13:23.839Z,61.06
2022-10-20T02:15:52.612Z,61.43
2022-10-20T02:18:23.201Z,61.22
2022-10-20T02:20:52.417Z,61.62
2022-10-20T02:23:19.291Z,61.40
2022-10-20T02:25:48.629Z,61.58
2022-10-20T02:28:15.851Z,61.49
2022-10-20T02:30:42.992Z,62.08
2022-10-20T02:33:09.763Z,62.05
2022-10-20T02:35:36.440Z,61.75
2022-10-20T02:38:03.557Z,61.72
2022-10-20T02:40:30.355Z,62.10
2022-10-20T02:42:56.987Z,61.94
2022-10-20T02:45:23.599Z,61.88
2022-10-20T02:47:50.302Z,61.89
2022-10-20T02:50:17.303Z,62.01
2022-10-20T02:52:44.057Z,62.03
2022-10-20T02:55:11.487Z,62.17
2022-10-20T02:57:38.588Z,62.04
2022-10-20T03:00:07.914Z,62.28
2022-10-20T03:02:34.765Z,62.37
2022-10-20T03:05:01.406Z,62.02
2022-10-20T03:07:28.103Z,62.22
2022-10-20T03:09:54.899Z,62.46
2022-10-20T03:12:21.546Z,62.15
2022-10-20T03:14:48.166Z,62.39
2022-10-20T03:17:14.859Z,62.25
2022-10-20T03:19:41.600Z,62.23
2022-10-20T03:22:08.268Z,62.21
2022-10-20T03:24:34.861Z,62.11
2022-10-20T03:27:06.101Z,62.63
2022-10-20T03:29:32.849Z,62.09
2022-10-20T03:31:59.413Z,62.31
2022-10-20T03:34:26.053Z,62.63
2022-10-20T03:37:01.975Z,62.34
2022-10-20T03:39:28.594Z,62.58
2022-10-20T03:41:56.198Z,62.73
2022-10-20T03:44:22.811Z,62.64
2022-10-20T03:46:49.376Z,62.94
2022-10-20T03:49:16.125Z,62.69
2022-10-20T03:51:42.724Z,62.66
2022-10-20T03:54:09.895Z,62.65
2022-10-20T03:56:36.537Z,63.28
2022-10-20T04:01:32.547Z,63.07
2022-10-20T04:03:59.175Z,63.49
2022-10-20T04:06:26.129Z,63.67
2022-10-20T04:08:52.824Z,63.42
2022-10-20T04:11:19.577Z,63.35
2022-10-20T04:13:46.290Z,63.63
2022-10-20T04:16:12.936Z,63.63
2022-10-20T04:18:39.570Z,63.88
2022-10-20T04:21:06.363Z,64.07
2022-10-20T04:23:32.952Z,63.60
2022-10-20T04:25:59.654Z,63.72
2022-10-20T04:28:26.538Z,64.30
2022-10-20T04:30:53.177Z,64.29
2022-10-20T04:33:19.755Z,64.13
2022-10-20T04:35:46.433Z,63.97
2022-10-20T04:38:13.086Z,64.35
2022-10-20T04:40:39.747Z,64.22
2022-10-20T04:43:06.327Z,64.33
2022-10-20T04:45:32.941Z,63.99
2022-10-20T04:47:59.553Z,64.10
2022-10-20T04:50:26.258Z,64.27
2022-10-20T04:52:52.814Z,63.97
2022-10-20T04:55:20.415Z,64.07
2022-10-20T04:57:47.153Z,63.92
2022-10-20T05:00:13.961Z,64.05
2022-10-20T05:02:40.664Z,64.05
2022-10-20T05:05:07.413Z,64.49
2022-10-20T05:07:34.312Z,64.36
2022-10-20T05:10:01.240Z,64.16
2022-10-20T05:12:28.604Z,64.28
2022-10-20T05:14:55.396Z,64.42
2022-10-20T05:17:21.955Z,64.40
2022-10-20T05:19:48.513Z,64.11
2022-10-20T05:22:15.082Z,64.58
2022-10-20T05:24:41.708Z,64.49
2022-10-20T05:27:08.328Z,64.63
2022-10-20T05:29:34.881Z,64.50
2022-10-20T05:32:01.475Z,64.52
2022-10-20T05:34:28.147Z,64.41
2022-10-20T05:37:01.845Z,64.45
2022-10-20T05:39:28.424Z,64.23
2022-10-20T05:41:55.036Z,64.53
2022-10-20T05:44:21.597Z,64.57
2022-10-20T05:46:48.198Z,64.53
2022-10-20T05:49:16.788Z,64.41
2022-10-20T05:51:43.949Z,64.22
2022-10-20T05:54:11.766Z,64.54
2022-10-20T05:56:38.315Z,64.40
2022-10-20T05:59:04.864Z,64.20
2022-10-20T06:01:48.595Z,64.64
2022-10-20T06:04:20.175Z,64.63
2022-10-20T06:06:49.067Z,64.43
2022-10-20T06:09:15.787Z,64.34
2022-10-20T06:11:42.325Z,64.30
2022-10-20T06:14:09.316Z,64.60
2022-10-20T06:16:36.395Z,64.37
2022-10-20T06:19:03.360Z,64.52
2022-10-20T06:21:31.103Z,64.86
2022-10-20T06:24:01.311Z,64.71
2022-10-20T06:26:36.533Z,65.19
2022-10-20T06:29:04.946Z,64.68
2022-10-20T06:31:32.893Z,64.52
2022-10-20T06:33:59.793Z,64.50
2022-10-20T06:36:26.730Z,64.69
2022-10-20T06:38:54.481Z,64.55
2022-10-20T06:41:21.392Z,64.03
2022-10-20T06:43:48.053Z,64.35
2022-10-20T06:46:18.302Z,64.37
2022-10-20T06:48:45.415Z,64.31
2022-10-20T06:51:16.304Z,64.84
2022-10-20T06:53:46.534Z,64.78
2022-10-20T06:56:16.805Z,65.17
2022-10-20T06:58:44.310Z,65.08
2022-10-20T07:01:17.108Z,65.04
2022-10-20T07:03:45.149Z,65.58
2022-10-20T07:06:16.314Z,65.22
2022-10-20T07:08:43.261Z,65.60
2022-10-20T07:11:11.981Z,65.50
2022-10-20T07:13:39.347Z,65.22
2022-10-20T07:16:06.642Z,66.00
2022-10-20T07:18:33.359Z,65.91
2022-10-20T07:21:04.903Z,65.82
2022-10-20T07:23:31.985Z,66.28
2022-10-20T07:26:03.068Z,65.91
2022-10-20T07:28:29.886Z,65.60
2022-10-20T07:30:56.562Z,65.71
2022-10-20T07:33:23.320Z,65.46
2022-10-20T07:35:50.306Z,65.30
2022-10-20T07:38:17.065Z,65.67
2022-10-20T07:40:43.643Z,65.25
2022-10-20T07:43:10.259Z,65.47
2022-10-20T07:45:36.851Z,65.08
2022-10-20T07:48:04.446Z,64.88
2022-10-20T07:50:31.153Z,64.98
2022-10-20T07:52:57.787Z,64.54
2022-10-20T07:55:38.072Z,64.53
2022-10-20T07:58:05.480Z,64.65
2022-10-20T08:00:32.182Z,64.52
2022-10-20T08:02:58.971Z,64.61
2022-10-20T08:05:25.599Z,64.66
2022-10-20T08:07:52.561Z,64.39
2022-10-20T08:10:19.246Z,64.76
2022-10-20T08:12:45.965Z,64.70
2022-10-20T08:15:25.908Z,64.35
2022-10-20T08:17:52.535Z,64.69
2022-10-20T08:20:21.299Z,64.19
2022-10-20T08:22:50.231Z,64.58
2022-10-20T08:25:16.930Z,64.80
2022-10-20T08:27:43.589Z,64.77
2022-10-20T08:30:23.490Z,64.67
2022-10-20T08:32:53.070Z,65.00
2022-10-20T08:35:20.043Z,64.99
2022-10-20T08:37:46.677Z,65.24
2022-10-20T08:40:17.500Z,64.87
2022-10-20T08:42:45.433Z,64.88
2022-10-20T08:45:16.588Z,64.68
2022-10-20T08:47:43.791Z,64.41
2022-10-20T08:50:12.666Z,64.40
2022-10-20T08:52:41.179Z,64.19
2022-10-20T08:55:08.378Z,64.54
2022-10-20T08:57:36.487Z,64.23
2022-10-20T09:00:20.836Z,64.28
2022-10-20T09:02:48.513Z,64.31
2022-10-20T09:05:19.111Z,63.78
2022-10-20T09:07:48.550Z,64.08
2022-10-20T09:10:24.155Z,63.92
2022-10-20T09:12:52.212Z,64.01
2022-10-20T09:15:20.018Z,63.92
2022-10-20T09:17:52.747Z,63.83
2022-10-20T09:20:22.584Z,63.92
2022-10-20T09:22:49.523Z,63.50
2022-10-20T09:25:17.936Z,63.42
2022-10-20T09:27:45.469Z,63.53
2022-10-20T09:30:17.776Z,63.38
2022-10-20T09:32:46.921Z,63.66
2022-10-20T09:35:27.940Z,63.76
2022-10-20T09:38:16.428Z,63.25
2022-10-20T09:40:54.906Z,63.55
2022-10-20T09:43:21.609Z,63.23
2022-10-20T09:45:53.552Z,63.35
2022-10-20T09:48:27.380Z,63.60
2022-10-20T09:50:56.335Z,63.30
2022-10-20T09:53:46.865Z,63.53
2022-10-20T09:56:22.858Z,63.25
2022-10-20T09:58:49.553Z,63.04
2022-10-20T10:01:17.968Z,63.35
2022-10-20T10:03:46.234Z,63.41
2022-10-20T10:06:31.298Z,63.66
2022-10-20T10:08:59.761Z,63.20
2022-10-20T10:11:33.142Z,63.48
2022-10-20T10:14:00.325Z,63.71
2022-10-20T10:16:27.437Z,63.56
2022-10-20T10:19:01.954Z,63.33
2022-10-20T10:21:30.444Z,62.87
2022-10-20T10:24:01.262Z,62.94
2022-10-20T10:27:04.308Z,62.42
2022-10-20T10:29:34.616Z,62.47
2022-10-20T10:32:13.298Z,62.47
2022-10-20T10:34:45.839Z,62.47
2022-10-20T10:37:14.304Z,62.26
2022-10-20T10:39:41.759Z,62.05
2022-10-20T10:42:26.375Z,62.27
2022-10-20T10:44:58.965Z,62.14
2022-10-20T10:47:44.552Z,62.30
2022-10-20T10:50:17.199Z,62.00
2022-10-20T10:52:44.269Z,62.13
2022-10-20T10:55:47.926Z,62.15
2022-10-20T10:58:34.676Z,61.92
2022-10-20T11:01:01.288Z,61.84
2022-10-20T11:03:39.847Z,61.60
2022-10-20T11:06:24.009Z,61.92
2022-10-20T11:08:53.718Z,61.84
2022-10-20T11:11:27.749Z,61.69
2022-10-20T11:14:06.646Z,61.99
2022-10-20T11:17:08.023Z,61.65
2022-10-20T11:19:34.737Z,61.47
2022-10-20T11:22:09.439Z,61.79
2022-10-20T11:24:39.765Z,61.72
2022-10-20T11:27:20.957Z,61.69
2022-10-20T11:29:50.076Z,61.52
2022-10-20T11:32:20.978Z,61.84
2022-10-20T11:34:55.714Z,61.64
2022-10-20T11:37:26.637Z,61.69
2022-10-20T11:40:11.504Z,61.93
2022-10-20T11:42:52.880Z,61.94
2022-10-20T11:45:22.423Z,61.67
2022-10-20T11:47:51.072Z,61.53
2022-10-20T11:50:18.810Z,61.68
2022-10-20T11:52:45.370Z,61.84
2022-10-20T11:55:12.791Z,61.52
2022-10-20T11:58:01.128Z,61.48
2022-10-20T12:00:31.475Z,61.67
2022-10-20T12:03:10.321Z,61.56
2022-10-20T12:05:55.856Z,61.82
2022-10-20T12:08:37.561Z,61.75
2022-10-20T12:11:17.877Z,61.98
2022-10-20T12:13:47.593Z,61.72
2022-10-20T12:16:34.138Z,61.93
2022-10-20T12:19:15.268Z,62.10
2022-10-20T12:22:00.464Z,62.00
2022-10-20T12:24:31.312Z,61.95
2022-10-20T12:27:09.385Z,62.01
2022-10-20T12:29:35.979Z,61.77
2022-10-20T12:32:21.625Z,61.75
2022-10-20T12:34:49.245Z,61.97
2022-10-20T12:37:24.808Z,61.71
2022-10-20T12:39:52.933Z,61.78
2022-10-20T12:42:19.575Z,61.48
2022-10-20T12:44:46.735Z,61.56
2022-10-20T12:47:42.582Z,61.88
2022-10-20T12:50:20.998Z,61.76
2022-10-20T12:52:47.638Z,61.42
2022-10-20T12:55:19.991Z,61.66
2022-10-20T12:57:47.233Z,61.57
2022-10-20T13:00:20.056Z,61.29
2022-10-20T13:02:48.115Z,61.48
2022-10-20T13:05:14.676Z,61.54
2022-10-20T13:07:47.941Z,61.62
2022-10-20T13:10:26.843Z,61.35
2022-10-20T13:12:54.495Z,61.52
2022-10-20T13:15:22.408Z,61.35
2022-10-20T13:17:55.943Z,61.67
2022-10-20T13:20:28.274Z,61.49
2022-10-20T13:22:55.944Z,61.73
2022-10-20T13:25:28.424Z,61.77
2022-10-20T13:28:06.131Z,61.32
2022-10-20T13:30:34.715Z,61.36
2022-10-20T13:33:33.863Z,61.39
2022-10-20T13:36:06.882Z,62.03
2022-10-20T13:38:39.573Z,61.75
2022-10-20T13:41:11.936Z,62.15
2022-10-20T13:44:02.971Z,61.81
2022-10-20T13:46:32.304Z,61.73
2022-10-20T13:49:10.658Z,61.85
2022-10-20T13:52:03.476Z,61.60
2022-10-20T13:54:34.763Z,61.81
2022-10-20T13:57:08.517Z,62.05
2022-10-20T13:59:35.183Z,61.93
2022-10-20T14:02:22.838Z,61.59
2022-10-20T14:05:01.402Z,61.56
2022-10-20T14:07:35.478Z,61.56
2022-10-20T14:10:02.089Z,61.63
2022-10-20T14:12:28.790Z,61.51
2022-10-20T14:15:01.535Z,61.96
2022-10-20T14:17:28.952Z,61.61
2022-10-20T14:20:14.124Z,61.74
2022-10-20T14:22:43.997Z,61.50
2022-10-20T14:25:11.576Z,61.71
2022-10-20T14:27:38.807Z,61.72
2022-10-20T14:30:06.510Z,61.48
2022-10-20T14:32:35.586Z,62.12
2022-10-20T14:35:04.160Z,62.52
2022-10-20T14:37:41.391Z,62.25
2022-10-20T14:40:18.283Z,62.23
2022-10-20T14:42:45.452Z,62.10
2022-10-20T14:45:25.910Z,61.97
2022-10-20T14:47:53.449Z,61.79
2022-10-20T14:50:24.885Z,61.82
2022-10-20T14:52:54.198Z,62.18
2022-10-20T14:55:41.382Z,61.62
2022-10-20T14:58:26.943Z,62.09
2022-10-20T15:01:13.399Z,62.01
2022-10-20T15:03:40.137Z,61.75
2022-10-20T15:06:13.747Z,61.51
2022-10-20T15:08:52.393Z,61.92
2022-10-20T15:11:27.451Z,61.62
2022-10-20T15:13:55.580Z,61.40
2022-10-20T15:16:40.896Z,61.42
2022-10-20T15:19:25.561Z,61.56
2022-10-20T15:22:01.926Z,61.43
2022-10-20T15:24:28.925Z,61.29
2022-10-20T15:27:11.755Z,61.58
2022-10-20T15:29:39.220Z,61.51
2022-10-20T15:32:05.958Z,61.64
2022-10-20T15:34:32.706Z,61.68
2022-10-20T15:37:07.594Z,61.60
2022-10-20T15:39:35.787Z,61.56
2022-10-20T15:42:05.697Z,61.55
2022-10-20T15:44:32.487Z,61.39
2022-10-20T15:47:11.576Z,61.11
2022-10-20T15:49:38.391Z,61.62
2022-10-20T15:52:05.090Z,61.43
2022-10-20T15:54:31.804Z,61.53
2022-10-20T15:57:08.221Z,61.35
2022-10-20T15:59:35.025Z,61.09
2022-10-20T16:02:03.026Z,61.12
2022-10-20T16:04:31.673Z,61.24
2022-10-20T16:07:08.906Z,61.40
2022-10-20T16:09:35.689Z,60.88
2022-10-20T16:12:02.422Z,60.80
2022-10-20T16:14:29.270Z,60.95
2022-10-20T16:17:06.164Z,60.88
2022-10-20T16:19:33.039Z,61.02
2022-10-20T16:21:59.793Z,61.14
2022-10-20T16:24:26.483Z,61.01
2022-10-20T16:26:53.425Z,61.16
2022-10-20T16:29:20.213Z,61.16
2022-10-20T16:31:48.274Z,60.84
2022-10-20T16:34:14.978Z,61.19
2022-10-20T16:36:41.749Z,60.83
2022-10-20T16:39:08.827Z,60.89
2022-10-20T16:41:35.524Z,61.25
2022-10-20T16:44:02.164Z,60.88
2022-10-20T16:46:29.021Z,60.80
2022-10-20T16:48:57.529Z,61.13
2022-10-20T16:51:24.262Z,60.97
2022-10-20T16:53:51.004Z,61.29
2022-10-20T16:56:20.072Z,61.13
2022-10-20T16:58:48.569Z,60.88
2022-10-20T17:01:16.665Z,60.96
2022-10-20T17:03:45.114Z,61.35
2022-10-20T17:06:12.032Z,61.41
2022-10-20T17:08:38.851Z,61.09
2022-10-20T17:11:07.344Z,61.38
2022-10-20T17:13:34.751Z,61.03
2022-10-20T17:16:07.655Z,61.38
2022-10-20T17:18:34.429Z,61.33
2022-10-20T17:21:01.200Z,61.29
2022-10-20T17:23:28.077Z,61.57
2022-10-20T17:25:58.589Z,61.34
2022-10-20T17:28:25.403Z,61.16
2022-10-20T17:30:53.366Z,61.50
2022-10-20T17:33:20.109Z,61.23
2022-10-20T17:35:49.959Z,61.21
2022-10-20T17:38:16.810Z,61.56
2022-10-20T17:40:43.585Z,61.49
2022-10-20T17:43:10.475Z,61.30
2022-10-20T17:45:38.188Z,61.30
2022-10-20T17:48:05.607Z,61.50
2022-10-20T17:50:32.396Z,61.51
2022-10-20T17:53:00.479Z,61.60
2022-10-20T17:55:27.273Z,61.58
2022-10-20T17:57:54.085Z,61.59
2022-10-20T18:00:31.726Z,61.33
2022-10-20T18:03:08.185Z,61.75
2022-10-20T18:05:37.677Z,61.52
2022-10-20T18:08:04.468Z,61.78
2022-10-20T18:10:31.297Z,61.73
2022-10-20T18:12:58.000Z,61.99
2022-10-20T18:15:24.645Z,61.83
2022-10-20T18:17:51.290Z,61.58
2022-10-20T18:20:18.004Z,61.67
2022-10-20T18:22:45.733Z,62.25
2022-10-20T18:25:12.359Z,62.22
2022-10-20T18:27:38.959Z,62.23
2022-10-20T18:30:05.928Z,62.22
2022-10-20T18:32:32.547Z,61.88
2022-10-20T18:34:59.307Z,62.03
2022-10-20T18:37:25.962Z,62.47
2022-10-20T18:39:52.600Z,62.34
2022-10-20T18:42:19.182Z,62.62
2022-10-20T18:44:45.817Z,62.34
2022-10-20T18:47:12.506Z,62.49
2022-10-20T18:49:39.111Z,62.73
2022-10-20T18:52:05.762Z,62.95
2022-10-20T18:54:32.350Z,62.76
2022-10-20T18:57:04.413Z,63.02
2022-10-20T18:59:31.208Z,63.38
2022-10-20T19:01:57.794Z,63.38
2022-10-20T19:04:24.455Z,63.05
2022-10-20T19:06:51.456Z,63.11
2022-10-20T19:09:19.595Z,63.11
2022-10-20T19:11:47.164Z,63.40
2022-10-20T19:14:14.297Z,63.64
2022-10-20T19:16:42.380Z,63.50
2022-10-20T19:19:09.627Z,63.64
2022-10-20T19:21:36.462Z,63.74
2022-10-20T19:24:07.870Z,63.51
2022-10-20T19:26:36.512Z,62.38
2022-10-20T19:29:05.840Z,62.67
2022-10-20T19:31:46.105Z,63.24
2022-10-20T19:34:18.535Z,63.16
2022-10-20T19:36:48.119Z,63.27
2022-10-20T19:39:16.391Z,63.22
2022-10-20T19:41:43.076Z,63.30
2022-10-20T19:44:15.530Z,63.28
2022-10-20T19:46:46.585Z,63.09
2022-10-20T19:49:13.794Z,63.47
2022-10-20T19:51:40.647Z,63.36
2022-10-20T19:54:07.499Z,63.24
2022-10-20T19:56:34.901Z,63.10
2022-10-20T19:59:02.202Z,62.96
2022-10-20T20:01:28.936Z,63.13
2022-10-20T20:03:55.618Z,62.88
2022-10-20T20:06:22.425Z,63.08
2022-10-20T20:09:16.880Z,63.03
2022-10-20T20:12:03.300Z,62.91
2022-10-20T20:14:54.185Z,63.04
2022-10-20T20:17:33.482Z,62.68
2022-10-20T20:20:19.950Z,62.84
2022-10-20T20:22:46.829Z,62.96
2022-10-20T20:27:46.090Z,62.78
2022-10-20T20:41:24.346Z,62.82
2022-10-20T20:43:50.964Z,62.69
2022-10-20T20:46:18.821Z,62.77
2022-10-20T20:48:45.902Z,62.86
2022-10-20T20:51:13.120Z,63.12
2022-10-20T20:53:40.391Z,62.67
2022-10-20T20:56:08.431Z,62.97
2022-10-20T20:58:35.245Z,63.14
2022-10-20T21:01:02.934Z,62.81
2022-10-20T21:03:29.778Z,63.23
2022-10-20T21:05:56.411Z,63.18
2022-10-20T21:08:23.061Z,63.18
2022-10-20T21:10:49.673Z,63.19
2022-10-20T21:13:16.352Z,63.06
2022-10-20T21:15:42.993Z,62.75
2022-10-20T21:18:09.601Z,63.05
2022-10-20T21:20:36.188Z,62.84
2022-10-20T21:23:02.755Z,62.85
2022-10-20T21:25:29.327Z,63.00
2022-10-20T21:27:56.068Z,62.92
2022-10-20T21:30:22.712Z,63.56
2022-10-20T21:32:49.372Z,63.16
2022-10-20T21:35:18.139Z,63.84
2022-10-20T21:37:44.760Z,63.85
2022-10-20T21:40:11.660Z,63.82
2022-10-20T21:42:38.466Z,63.84
2022-10-20T21:45:05.473Z,63.93
2022-10-20T21:47:32.088Z,63.89
2022-10-20T21:49:58.703Z,63.74
2022-10-20T21:52:25.372Z,63.72
2022-10-20T21:54:51.949Z,63.89
2022-10-20T21:57:18.548Z,64.19
2022-10-20T21:59:50.594Z,64.25
2022-10-20T22:02:17.205Z,64.18
2022-10-20T22:04:43.823Z,63.95
2022-10-20T22:07:10.389Z,64.08
2022-10-20T22:09:36.954Z,64.57
2022-10-20T22:12:03.757Z,64.52
2022-10-20T22:14:30.814Z,64.68
2022-10-20T22:17:06.825Z,64.48
2022-10-20T22:19:33.441Z,64.40
2022-10-20T22:22:00.065Z,64.57
2022-10-20T22:24:27.977Z,64.53
2022-10-20T22:27:00.663Z,64.53
2022-10-20T22:29:28.850Z,64.61
2022-10-20T22:31:55.456Z,65.02
2022-10-20T22:34:22.080Z,64.90
2022-10-20T22:36:48.905Z,64.80
2022-10-20T22:39:15.601Z,64.73
2022-10-20T22:41:42.308Z,65.02
2022-10-20T22:44:09.446Z,64.70
2022-10-20T22:46:36.929Z,64.72
2022-10-20T22:49:03.736Z,64.59
2022-10-20T22:51:30.419Z,65.07
2022-10-20T22:53:57.084Z,65.51
2022-10-20T22:56:24.011Z,65.33
2022-10-20T22:58:52.576Z,65.59
2022-10-20T23:01:21.244Z,65.32
2022-10-20T23:03:48.075Z,65.39
2022-10-20T23:06:16.545Z,65.52
2022-10-20T23:08:54.273Z,65.63
2022-10-20T23:11:21.548Z,65.44
2022-10-20T23:13:48.245Z,65.70
2022-10-20T23:16:15.366Z,65.64
2022-10-20T23:18:42.237Z,65.74
2022-10-20T23:21:08.911Z,65.40
2022-10-20T23:23:36.794Z,65.76
2022-10-20T23:26:04.779Z,65.73
2022-10-20T23:28:31.742Z,65.76
2022-10-20T23:31:07.879Z,65.79
2022-10-20T23:33:34.556Z,65.98
2022-10-20T23:36:01.439Z,65.90
2022-10-20T23:38:28.090Z,65.65
2022-10-20T23:40:54.702Z,65.76
2022-10-20T23:43:21.354Z,65.71
2022-10-20T23:45:47.949Z,65.39
2022-10-20T23:48:14.657Z,65.63
2022-10-20T23:50:42.672Z,65.33
2022-10-20T23:53:09.366Z,65.38
2022-10-20T23:55:35.950Z,65.38
2022-10-20T23:58:02.576Z,65.46
